createdAt,value
2017-12-31T00:00:41.598Z,0.00
2017-12-31T00:01:41.596Z,0.00
2017-12-31T00:02:41.594Z,0.00
2017-12-31T00:03:41.592Z,0.00
2017-12-31T00:04:41.589Z,0.00
2017-12-31T00:05:41.586Z,0.00
2017-12-31T00:06:41.583Z,0.00
2017-12-31T00:07:41.581Z,0.00
2017-12-31T00:08:41.578Z,0.00
2017-12-31T00:09:41.583Z,0.00
2017-12-31T00:10:41.574Z,0.00
2017-12-31T00:11:41.572Z,0.00
2017-12-31T00:12:41.569Z,0.00
2017-12-31T00:13:41.567Z,0.00
2017-12-31T00:14:41.564Z,0.00
2017-12-31T00:15:41.562Z,0.00
2017-12-31T00:16:41.559Z,0.00
2017-12-31T00:17:41.556Z,0.00
2017-12-31T00:18:41.554Z,0.00
2017-12-31T00:19:41.551Z,0.00
2017-12-31T00:20:41.548Z,0.00
2017-12-31T00:21:41.548Z,0.00
2017-12-31T00:22:41.544Z,0.00
2017-12-31T00:23:41.541Z,0.00
2017-12-31T00:24:41.539Z,0.00
2017-12-31T00:25:41.539Z,0.00
2017-12-31T00:26:41.534Z,0.00
2017-12-31T00:27:41.531Z,0.00
2017-12-31T00:28:41.529Z,0.00
2017-12-31T00:29:41.526Z,0.00
2017-12-31T00:30:41.524Z,0.00
2017-12-31T00:31:41.521Z,0.00
2017-12-31T00:32:41.519Z,0.00
2017-12-31T00:33:41.517Z,0.00
2017-12-31T00:34:41.513Z,0.00
2017-12-31T00:35:41.512Z,0.00
2017-12-31T00:36:41.509Z,0.00
2017-12-31T00:37:41.507Z,0.00
2017-12-31T00:38:41.504Z,0.00
2017-12-31T00:39:41.502Z,0.00
2017-12-31T00:40:41.499Z,0.00
2017-12-31T00:41:41.497Z,0.00
2017-12-31T00:42:41.494Z,0.00
2017-12-31T00:43:41.491Z,0.00
2017-12-31T00:44:41.490Z,0.00
2017-12-31T00:45:41.487Z,0.00
2017-12-31T00:46:41.484Z,0.00
2017-12-31T00:47:41.483Z,0.00
2017-12-31T00:48:41.480Z,0.00
2017-12-31T00:49:41.478Z,0.00
2017-12-31T00:50:41.476Z,0.00
2017-12-31T00:51:41.474Z,0.00
2017-12-31T00:52:41.470Z,0.00
2017-12-31T00:53:41.468Z,0.00
2017-12-31T00:54:41.466Z,0.00
2017-12-31T00:55:41.464Z,0.00
2017-12-31T00:56:41.461Z,0.00
2017-12-31T00:57:41.459Z,0.00
2017-12-31T00:58:41.457Z,0.00
2017-12-31T00:59:41.480Z,0.00
2017-12-31T01:00:41.453Z,0.00
2017-12-31T01:01:41.451Z,0.00
2017-12-31T01:02:41.448Z,0.00
2017-12-31T01:03:41.445Z,0.00
2017-12-31T01:04:41.442Z,0.00
2017-12-31T01:05:41.440Z,0.00
2017-12-31T01:06:41.437Z,0.00
2017-12-31T01:07:41.435Z,0.00
2017-12-31T01:08:41.433Z,0.00
2017-12-31T01:09:41.431Z,0.00
2017-12-31T01:10:41.428Z,0.00
2017-12-31T01:11:41.428Z,0.00
2017-12-31T01:12:41.424Z,0.00
2017-12-31T01:13:41.421Z,0.00
2017-12-31T01:14:41.419Z,0.00
2017-12-31T01:15:41.419Z,0.00
2017-12-31T01:16:41.414Z,0.00
2017-12-31T01:17:41.412Z,0.00
2017-12-31T01:18:41.409Z,0.00
2017-12-31T01:19:41.407Z,0.00
2017-12-31T01:20:41.404Z,0.00
2017-12-31T01:21:41.403Z,0.00
2017-12-31T01:22:41.400Z,0.00
2017-12-31T01:23:41.398Z,0.00
2017-12-31T01:24:41.397Z,0.00
2017-12-31T01:25:41.392Z,0.00
2017-12-31T01:26:41.389Z,0.00
2017-12-31T01:27:41.388Z,0.00
2017-12-31T01:28:41.385Z,0.00
2017-12-31T01:29:41.382Z,0.00
2017-12-31T01:30:41.380Z,0.00
2017-12-31T01:31:41.378Z,0.00
2017-12-31T01:32:41.376Z,0.00
2017-12-31T01:33:41.374Z,0.00
2017-12-31T01:34:41.375Z,0.00
2017-12-31T01:35:41.369Z,0.00
2017-12-31T01:36:41.366Z,0.00
2017-12-31T01:37:41.366Z,0.00
2017-12-31T01:38:41.372Z,0.00
2017-12-31T01:39:41.359Z,0.00
2017-12-31T01:40:41.360Z,0.00
2017-12-31T01:41:41.355Z,0.00
2017-12-31T01:42:41.351Z,0.00
2017-12-31T01:43:41.349Z,0.00
2017-12-31T01:44:41.345Z,0.00
2017-12-31T01:45:41.344Z,0.00
2017-12-31T01:46:41.340Z,0.00
2017-12-31T01:47:41.340Z,0.00
2017-12-31T01:48:41.336Z,0.00
2017-12-31T01:49:41.334Z,0.00
2017-12-31T01:50:41.331Z,0.00
2017-12-31T01:51:41.329Z,0.00
2017-12-31T01:52:41.326Z,0.00
2017-12-31T01:53:41.324Z,0.00
2017-12-31T01:54:41.370Z,0.00
2017-12-31T01:55:41.319Z,0.00
2017-12-31T01:56:41.316Z,0.00
2017-12-31T01:57:41.313Z,0.00
2017-12-31T01:58:41.311Z,0.00
2017-12-31T01:59:41.308Z,0.00
2017-12-31T02:00:41.306Z,0.00
2017-12-31T02:01:41.303Z,0.00
2017-12-31T02:02:41.301Z,0.00
2017-12-31T02:03:41.299Z,0.00
2017-12-31T02:04:41.294Z,0.00
2017-12-31T02:05:41.293Z,0.00
2017-12-31T02:06:41.290Z,0.00
2017-12-31T02:07:41.288Z,0.00
2017-12-31T02:08:41.285Z,0.00
2017-12-31T02:09:41.282Z,0.00
2017-12-31T02:10:41.279Z,0.00
2017-12-31T02:11:41.277Z,0.00
2017-12-31T02:12:41.274Z,0.00
2017-12-31T02:13:41.272Z,0.00
2017-12-31T02:14:41.270Z,0.00
2017-12-31T02:15:41.268Z,0.00
2017-12-31T02:16:41.264Z,0.00
2017-12-31T02:17:41.261Z,0.00
2017-12-31T02:18:41.259Z,0.00
2017-12-31T02:19:41.257Z,0.00
2017-12-31T02:20:41.254Z,0.00
2017-12-31T02:21:41.251Z,0.00
2017-12-31T02:22:41.248Z,0.00
2017-12-31T02:23:41.250Z,0.00
2017-12-31T02:24:41.243Z,0.00
2017-12-31T02:25:41.241Z,0.00
2017-12-31T02:26:41.238Z,0.00
2017-12-31T02:27:41.236Z,0.00
2017-12-31T02:28:41.233Z,0.00
2017-12-31T02:29:41.231Z,0.00
2017-12-31T02:30:41.228Z,0.00
2017-12-31T02:31:41.225Z,0.00
2017-12-31T02:32:41.223Z,0.00
2017-12-31T02:33:41.229Z,0.00
2017-12-31T02:34:41.227Z,0.00
2017-12-31T02:35:41.215Z,0.00
2017-12-31T02:36:41.219Z,0.00
2017-12-31T02:37:41.211Z,0.00
2017-12-31T02:38:41.208Z,0.00
2017-12-31T02:39:41.205Z,0.00
2017-12-31T02:40:41.202Z,0.00
2017-12-31T02:41:41.200Z,0.00
2017-12-31T02:42:41.200Z,0.00
2017-12-31T02:43:41.195Z,0.00
2017-12-31T02:44:41.191Z,0.00
2017-12-31T02:45:41.189Z,0.00
2017-12-31T02:46:41.186Z,0.00
2017-12-31T02:47:41.184Z,0.00
2017-12-31T02:48:41.181Z,0.00
2017-12-31T02:49:41.179Z,0.00
2017-12-31T02:50:41.176Z,0.00
2017-12-31T02:51:41.174Z,0.00
2017-12-31T02:52:41.170Z,0.00
2017-12-31T02:53:41.169Z,0.00
2017-12-31T02:54:41.166Z,0.00
2017-12-31T02:55:41.164Z,0.00
2017-12-31T02:56:41.160Z,0.00
2017-12-31T02:57:41.157Z,0.00
2017-12-31T02:58:41.155Z,0.00
2017-12-31T02:59:41.152Z,0.00
2017-12-31T03:00:41.149Z,0.00
2017-12-31T03:01:41.149Z,0.00
2017-12-31T03:02:41.146Z,0.00
2017-12-31T03:03:41.142Z,0.00
2017-12-31T03:04:41.139Z,0.00
2017-12-31T03:05:41.137Z,0.00
2017-12-31T03:06:41.135Z,0.00
2017-12-31T03:07:41.132Z,0.00
2017-12-31T03:08:41.129Z,0.00
2017-12-31T03:09:41.126Z,0.00
2017-12-31T03:10:41.126Z,0.00
2017-12-31T03:11:41.131Z,0.00
2017-12-31T03:12:41.118Z,0.00
2017-12-31T03:13:41.116Z,0.00
2017-12-31T03:14:41.114Z,0.00
2017-12-31T03:15:41.112Z,0.00
2017-12-31T03:16:41.108Z,0.00
2017-12-31T03:17:41.108Z,0.00
2017-12-31T03:18:41.105Z,0.00
2017-12-31T03:19:41.103Z,0.00
2017-12-31T03:20:41.098Z,0.00
2017-12-31T03:21:41.099Z,0.00
2017-12-31T03:22:41.094Z,0.00
2017-12-31T03:23:41.093Z,0.00
2017-12-31T03:24:41.090Z,0.00
2017-12-31T03:25:41.086Z,0.00
2017-12-31T03:26:41.085Z,0.00
2017-12-31T03:27:41.083Z,0.00
2017-12-31T03:28:41.080Z,0.00
2017-12-31T03:29:41.079Z,0.00
2017-12-31T03:30:41.076Z,0.00
2017-12-31T03:31:41.073Z,0.00
2017-12-31T03:32:41.070Z,0.00
2017-12-31T03:33:41.068Z,0.00
2017-12-31T03:34:41.066Z,0.00
2017-12-31T03:35:41.063Z,0.00
2017-12-31T03:36:41.063Z,0.00
2017-12-31T03:37:41.059Z,0.00
2017-12-31T03:38:41.056Z,0.00
2017-12-31T03:39:41.057Z,0.00
2017-12-31T03:40:41.051Z,0.00
2017-12-31T03:41:41.049Z,0.00
2017-12-31T03:42:41.047Z,0.00
2017-12-31T03:43:41.044Z,0.00
2017-12-31T03:44:41.041Z,0.00
2017-12-31T03:45:41.039Z,0.00
2017-12-31T03:46:41.037Z,0.00
2017-12-31T03:47:41.035Z,0.00
2017-12-31T03:48:41.032Z,0.00
2017-12-31T03:49:41.030Z,0.00
2017-12-31T03:50:41.027Z,0.00
2017-12-31T03:51:41.024Z,0.00
2017-12-31T03:52:41.021Z,0.00
2017-12-31T03:53:41.019Z,0.00
2017-12-31T03:54:41.017Z,0.00
2017-12-31T03:55:41.014Z,0.00
2017-12-31T03:56:41.012Z,0.00
2017-12-31T03:57:41.009Z,0.00
2017-12-31T03:58:41.006Z,0.00
2017-12-31T03:59:41.004Z,0.00
2017-12-31T04:00:41.007Z,0.00
2017-12-31T04:01:40.998Z,0.00
2017-12-31T04:02:40.996Z,0.00
2017-12-31T04:03:40.993Z,0.00
2017-12-31T04:04:40.990Z,0.00
2017-12-31T04:05:40.988Z,0.00
2017-12-31T04:06:40.985Z,0.00
2017-12-31T04:07:40.982Z,0.00
2017-12-31T04:08:40.980Z,0.00
2017-12-31T04:09:40.977Z,0.00
2017-12-31T04:10:40.974Z,0.00
2017-12-31T04:11:40.971Z,0.00
2017-12-31T04:12:40.968Z,0.00
2017-12-31T04:13:40.965Z,0.00
2017-12-31T04:14:40.963Z,0.00
2017-12-31T04:15:40.961Z,0.00
2017-12-31T04:16:40.957Z,0.00
2017-12-31T04:17:40.954Z,0.00
2017-12-31T04:18:40.952Z,0.00
2017-12-31T04:19:40.954Z,0.00
2017-12-31T04:20:40.946Z,0.00
2017-12-31T04:21:40.943Z,0.00
2017-12-31T04:22:40.941Z,0.00
2017-12-31T04:23:40.938Z,0.00
2017-12-31T04:24:40.936Z,0.00
2017-12-31T04:25:40.935Z,0.00
2017-12-31T04:26:40.931Z,0.00
2017-12-31T04:27:40.927Z,0.00
2017-12-31T04:28:40.925Z,0.00
2017-12-31T04:29:40.922Z,0.00
2017-12-31T04:30:40.919Z,0.00
2017-12-31T04:31:40.916Z,0.00
2017-12-31T04:32:40.913Z,0.00
2017-12-31T04:33:40.910Z,0.00
2017-12-31T04:34:40.908Z,0.00
2017-12-31T04:35:40.905Z,0.00
2017-12-31T04:36:40.902Z,0.00
2017-12-31T04:37:40.903Z,0.00
2017-12-31T04:38:40.897Z,0.00
2017-12-31T04:39:40.894Z,0.00
2017-12-31T04:40:40.891Z,0.00
2017-12-31T04:41:40.888Z,0.00
2017-12-31T04:42:40.886Z,0.00
2017-12-31T04:43:40.883Z,0.00
2017-12-31T04:44:40.879Z,0.00
2017-12-31T04:45:40.878Z,0.00
2017-12-31T04:46:40.876Z,0.00
2017-12-31T04:47:40.872Z,0.00
2017-12-31T04:48:40.869Z,0.00
2017-12-31T04:49:40.874Z,0.00
2017-12-31T04:50:40.863Z,0.00
2017-12-31T04:51:40.860Z,0.00
2017-12-31T04:52:40.856Z,0.00
2017-12-31T04:53:40.854Z,0.00
2017-12-31T04:54:40.855Z,0.00
2017-12-31T04:55:40.849Z,0.00
2017-12-31T04:56:40.846Z,0.00
2017-12-31T04:57:40.843Z,0.00
2017-12-31T04:58:40.842Z,0.00
2017-12-31T04:59:40.841Z,0.00
2017-12-31T05:00:40.834Z,0.00
2017-12-31T05:01:40.832Z,0.00
2017-12-31T05:02:40.831Z,0.00
2017-12-31T05:03:40.828Z,0.00
2017-12-31T05:04:40.824Z,0.00
2017-12-31T05:05:40.821Z,0.00
2017-12-31T05:06:40.819Z,0.00
2017-12-31T05:07:40.817Z,0.00
2017-12-31T05:08:40.813Z,0.00
2017-12-31T05:09:40.810Z,0.00
2017-12-31T05:10:40.808Z,0.00
2017-12-31T05:11:40.806Z,0.00
2017-12-31T05:12:40.803Z,0.00
2017-12-31T05:13:40.798Z,0.00
2017-12-31T05:14:40.797Z,0.00
2017-12-31T05:15:40.794Z,0.00
2017-12-31T05:16:40.791Z,0.00
2017-12-31T05:17:40.789Z,0.00
2017-12-31T05:18:40.787Z,0.00
2017-12-31T05:19:40.784Z,0.00
2017-12-31T05:20:40.780Z,0.00
2017-12-31T05:21:40.780Z,0.00
2017-12-31T05:22:40.774Z,0.00
2017-12-31T05:23:40.773Z,0.00
2017-12-31T05:24:40.768Z,0.00
2017-12-31T05:25:40.767Z,0.00
2017-12-31T05:26:40.764Z,0.00
2017-12-31T05:27:40.762Z,0.00
2017-12-31T05:28:40.759Z,0.00
2017-12-31T05:29:40.756Z,0.00
2017-12-31T05:30:40.752Z,0.00
2017-12-31T05:31:40.750Z,0.00
2017-12-31T05:32:40.747Z,0.00
2017-12-31T05:33:40.745Z,0.00
2017-12-31T05:34:40.742Z,0.00
2017-12-31T05:35:40.742Z,0.00
2017-12-31T05:36:40.736Z,0.00
2017-12-31T05:37:40.734Z,0.00
2017-12-31T05:38:40.732Z,0.00
2017-12-31T05:39:40.728Z,0.00
2017-12-31T05:40:40.726Z,0.00
2017-12-31T05:41:40.723Z,0.00
2017-12-31T05:42:40.722Z,0.00
2017-12-31T05:43:40.717Z,0.00
2017-12-31T05:44:40.716Z,0.00
2017-12-31T05:45:40.712Z,0.00
2017-12-31T05:46:40.709Z,0.00
2017-12-31T05:47:40.707Z,0.00
2017-12-31T05:48:40.704Z,0.00
2017-12-31T05:49:40.701Z,0.00
2017-12-31T05:50:40.700Z,0.00
2017-12-31T05:51:40.697Z,0.00
2017-12-31T05:52:40.695Z,0.00
2017-12-31T05:53:40.691Z,0.00
2017-12-31T05:54:40.689Z,0.00
2017-12-31T05:55:40.686Z,0.00
2017-12-31T05:56:40.683Z,0.00
2017-12-31T05:57:40.681Z,0.00
2017-12-31T05:58:40.679Z,0.00
2017-12-31T05:59:40.677Z,0.00
2017-12-31T06:00:40.674Z,0.00
2017-12-31T06:01:40.671Z,0.00
2017-12-31T06:02:40.669Z,0.00
2017-12-31T06:03:40.668Z,0.00
2017-12-31T06:04:40.662Z,0.00
2017-12-31T06:05:40.661Z,0.00
2017-12-31T06:06:40.659Z,0.00
2017-12-31T06:07:40.657Z,0.00
2017-12-31T06:08:40.653Z,0.00
2017-12-31T06:09:40.653Z,0.00
2017-12-31T06:10:40.649Z,0.00
2017-12-31T06:11:40.647Z,0.00
2017-12-31T06:12:40.642Z,0.00
2017-12-31T06:13:40.641Z,0.00
2017-12-31T06:14:40.639Z,0.00
2017-12-31T06:15:40.637Z,0.00
2017-12-31T06:16:40.635Z,0.00
2017-12-31T06:17:40.631Z,0.00
2017-12-31T06:18:40.630Z,0.00
2017-12-31T06:19:40.630Z,0.00
2017-12-31T06:20:40.623Z,0.00
2017-12-31T06:21:40.624Z,0.00
2017-12-31T06:22:40.620Z,0.00
2017-12-31T06:23:40.618Z,0.00
2017-12-31T06:24:40.614Z,0.00
2017-12-31T06:25:40.612Z,0.00
2017-12-31T06:26:40.610Z,0.00
2017-12-31T06:27:40.607Z,0.00
2017-12-31T06:28:40.605Z,0.00
2017-12-31T06:29:40.605Z,0.00
2017-12-31T06:30:40.601Z,0.00
2017-12-31T06:31:40.598Z,0.00
2017-12-31T06:32:40.595Z,0.00
2017-12-31T06:33:40.599Z,0.00
2017-12-31T06:34:40.591Z,0.00
2017-12-31T06:35:40.589Z,0.00
2017-12-31T06:36:40.585Z,0.00
2017-12-31T06:37:40.584Z,0.00
2017-12-31T06:38:40.581Z,0.00
2017-12-31T06:39:40.578Z,0.00
2017-12-31T06:40:40.577Z,0.00
2017-12-31T06:41:40.574Z,0.00
2017-12-31T06:42:40.573Z,0.00
2017-12-31T06:43:40.570Z,0.00
2017-12-31T06:44:40.567Z,0.00
2017-12-31T06:45:40.564Z,0.00
2017-12-31T06:46:40.562Z,0.00
2017-12-31T06:47:40.560Z,0.00
2017-12-31T06:48:40.557Z,0.00
2017-12-31T06:49:40.555Z,0.00
2017-12-31T06:50:40.554Z,0.00
2017-12-31T06:51:40.550Z,0.00
2017-12-31T06:52:40.548Z,0.00
2017-12-31T06:53:40.546Z,0.00
2017-12-31T06:54:40.544Z,0.00
2017-12-31T06:55:40.542Z,0.00
2017-12-31T06:56:40.538Z,0.00
2017-12-31T06:57:40.536Z,0.00
2017-12-31T06:58:40.544Z,0.00
2017-12-31T06:59:40.531Z,0.00
2017-12-31T07:00:40.528Z,0.00
2017-12-31T07:01:40.527Z,0.00
2017-12-31T07:02:40.524Z,0.00
2017-12-31T07:03:40.522Z,0.00
2017-12-31T07:04:40.520Z,0.00
2017-12-31T07:05:40.518Z,0.00
2017-12-31T07:06:40.515Z,0.00
2017-12-31T07:07:40.512Z,0.00
2017-12-31T07:08:40.509Z,0.00
2017-12-31T07:09:40.507Z,0.00
2017-12-31T07:10:40.505Z,0.00
2017-12-31T07:11:40.503Z,0.00
2017-12-31T07:12:40.499Z,0.00
2017-12-31T07:13:40.499Z,0.00
2017-12-31T07:14:40.496Z,0.00
2017-12-31T07:15:40.494Z,0.00
2017-12-31T07:16:40.491Z,0.00
2017-12-31T07:17:40.497Z,0.00
2017-12-31T07:18:40.486Z,0.00
2017-12-31T07:19:40.495Z,0.00
2017-12-31T07:20:40.483Z,0.00
2017-12-31T07:21:40.481Z,0.00
2017-12-31T07:22:40.478Z,0.00
2017-12-31T07:23:40.477Z,0.00
2017-12-31T07:24:40.474Z,0.00
2017-12-31T07:25:40.471Z,0.00
2017-12-31T07:26:40.469Z,0.00
2017-12-31T07:27:40.467Z,0.00
2017-12-31T07:28:40.465Z,0.00
2017-12-31T07:29:40.464Z,0.00
2017-12-31T07:30:40.463Z,0.00
2017-12-31T07:31:40.459Z,0.00
2017-12-31T07:32:40.455Z,0.00
2017-12-31T07:33:40.453Z,0.00
2017-12-31T07:34:40.452Z,0.00
2017-12-31T07:35:40.450Z,0.00
2017-12-31T07:36:40.447Z,0.00
2017-12-31T07:37:40.445Z,0.00
2017-12-31T07:38:40.444Z,0.00
2017-12-31T07:39:40.442Z,0.00
2017-12-31T07:40:40.440Z,0.00
2017-12-31T07:41:40.440Z,0.00
2017-12-31T07:42:40.435Z,0.00
2017-12-31T07:43:40.435Z,0.00
2017-12-31T07:44:40.431Z,0.00
2017-12-31T07:45:40.428Z,0.00
2017-12-31T07:46:40.428Z,0.00
2017-12-31T07:47:40.432Z,0.00
2017-12-31T07:48:40.421Z,0.00
2017-12-31T07:49:40.420Z,0.00
2017-12-31T07:50:40.420Z,0.00
2017-12-31T07:51:40.417Z,0.00
2017-12-31T07:52:40.413Z,0.00
2017-12-31T07:53:40.412Z,0.00
2017-12-31T07:54:40.411Z,0.00
2017-12-31T07:55:40.407Z,0.00
2017-12-31T07:56:40.405Z,5.63
2017-12-31T07:57:40.405Z,5.63
2017-12-31T07:58:40.401Z,5.63
2017-12-31T07:59:40.399Z,5.63
2017-12-31T08:00:40.398Z,5.63
2017-12-31T08:01:40.396Z,5.63
2017-12-31T08:02:40.402Z,5.63
2017-12-31T08:03:40.392Z,5.63
2017-12-31T08:04:40.390Z,5.63
2017-12-31T08:05:40.389Z,5.63
2017-12-31T08:06:40.386Z,5.63
2017-12-31T08:07:40.384Z,5.63
2017-12-31T08:08:40.382Z,5.63
2017-12-31T08:09:40.380Z,5.63
2017-12-31T08:10:40.378Z,5.63
2017-12-31T08:11:40.376Z,5.63
2017-12-31T08:12:40.375Z,5.63
2017-12-31T08:13:40.372Z,5.63
2017-12-31T08:14:40.370Z,5.63
2017-12-31T08:15:40.369Z,5.63
2017-12-31T08:16:40.366Z,5.63
2017-12-31T08:17:40.363Z,11.25
2017-12-31T08:18:40.370Z,5.63
2017-12-31T08:19:40.362Z,5.63
2017-12-31T08:20:40.358Z,5.63
2017-12-31T08:21:40.355Z,5.63
2017-12-31T08:22:40.353Z,5.63
2017-12-31T08:23:40.352Z,11.25
2017-12-31T08:24:40.349Z,11.25
2017-12-31T08:25:40.349Z,11.25
2017-12-31T08:26:40.346Z,11.25
2017-12-31T08:27:40.345Z,11.25
2017-12-31T08:28:40.340Z,11.25
2017-12-31T08:29:40.340Z,11.25
2017-12-31T08:30:40.337Z,11.25
2017-12-31T08:31:40.335Z,11.25
2017-12-31T08:32:40.332Z,11.25
2017-12-31T08:33:40.330Z,11.25
2017-12-31T08:34:40.328Z,11.25
2017-12-31T08:35:40.327Z,11.25
2017-12-31T08:36:40.326Z,16.88
2017-12-31T08:37:40.325Z,22.50
2017-12-31T08:38:40.320Z,22.50
2017-12-31T08:39:40.317Z,16.88
2017-12-31T08:40:40.315Z,16.88
2017-12-31T08:41:40.313Z,16.88
2017-12-31T08:42:40.311Z,22.50
2017-12-31T08:43:40.312Z,22.50
2017-12-31T08:44:40.327Z,28.13
2017-12-31T08:45:40.304Z,28.13
2017-12-31T08:46:40.302Z,33.75
2017-12-31T08:47:40.301Z,39.38
2017-12-31T08:48:40.298Z,50.63
2017-12-31T08:49:40.297Z,45.00
2017-12-31T08:50:40.293Z,33.75
2017-12-31T08:51:40.293Z,33.75
2017-12-31T08:52:40.290Z,28.13
2017-12-31T08:53:40.287Z,33.75
2017-12-31T08:54:40.284Z,28.13
2017-12-31T08:55:40.283Z,22.50
2017-12-31T08:56:40.287Z,22.50
2017-12-31T08:57:40.279Z,22.50
2017-12-31T08:58:40.277Z,22.50
2017-12-31T08:59:40.275Z,22.50
2017-12-31T09:00:40.276Z,22.50
2017-12-31T09:01:40.271Z,28.13
2017-12-31T09:02:40.270Z,28.13
2017-12-31T09:03:40.268Z,28.13
2017-12-31T09:04:40.265Z,33.75
2017-12-31T09:05:40.262Z,45.00
2017-12-31T09:06:40.261Z,39.38
2017-12-31T09:07:40.259Z,39.38
2017-12-31T09:08:40.257Z,33.75
2017-12-31T09:09:40.255Z,28.13
2017-12-31T09:10:40.258Z,33.75
2017-12-31T09:11:40.252Z,39.38
2017-12-31T09:12:40.249Z,28.13
2017-12-31T09:13:40.247Z,22.50
2017-12-31T09:14:40.246Z,28.13
2017-12-31T09:15:40.246Z,33.75
2017-12-31T09:16:40.241Z,28.13
2017-12-31T09:17:40.246Z,28.13
2017-12-31T09:18:40.238Z,22.50
2017-12-31T09:19:40.236Z,28.13
2017-12-31T09:20:40.235Z,22.50
2017-12-31T09:21:40.233Z,22.50
2017-12-31T09:22:40.233Z,22.50
2017-12-31T09:23:40.229Z,28.13
2017-12-31T09:24:40.230Z,28.13
2017-12-31T09:25:40.226Z,39.38
2017-12-31T09:26:40.223Z,39.38
2017-12-31T09:27:40.225Z,39.38
2017-12-31T09:28:40.220Z,39.38
2017-12-31T09:29:40.219Z,28.13
2017-12-31T09:30:40.223Z,22.50
2017-12-31T09:31:40.217Z,16.88
2017-12-31T09:32:40.214Z,16.88
2017-12-31T09:33:40.213Z,22.50
2017-12-31T09:34:40.210Z,16.88
2017-12-31T09:35:40.209Z,22.50
2017-12-31T09:36:40.207Z,22.50
2017-12-31T09:37:40.204Z,22.50
2017-12-31T09:38:40.205Z,16.88
2017-12-31T09:39:40.202Z,22.50
2017-12-31T09:40:40.200Z,22.50
2017-12-31T09:41:40.200Z,16.88
2017-12-31T09:42:40.197Z,16.88
2017-12-31T09:43:40.195Z,16.88
2017-12-31T09:44:40.194Z,11.25
2017-12-31T09:45:40.193Z,11.25
2017-12-31T09:46:40.190Z,16.88
2017-12-31T09:47:40.190Z,16.88
2017-12-31T09:48:40.188Z,16.88
2017-12-31T09:49:40.185Z,22.50
2017-12-31T09:50:40.187Z,22.50
2017-12-31T09:51:40.182Z,22.50
2017-12-31T09:52:40.180Z,22.50
2017-12-31T09:53:40.178Z,22.50
2017-12-31T09:54:40.177Z,22.50
2017-12-31T09:55:40.176Z,22.50
2017-12-31T09:56:40.173Z,22.50
2017-12-31T09:57:40.171Z,28.13
2017-12-31T09:58:40.170Z,22.50
2017-12-31T09:59:40.175Z,22.50
2017-12-31T10:00:40.208Z,22.50
2017-12-31T10:01:40.164Z,22.50
2017-12-31T10:02:40.164Z,22.50
2017-12-31T10:03:40.162Z,16.88
2017-12-31T10:04:40.160Z,16.88
2017-12-31T10:05:40.158Z,16.88
2017-12-31T10:06:40.157Z,22.50
2017-12-31T10:07:40.156Z,22.50
2017-12-31T10:08:40.154Z,22.50
2017-12-31T10:09:40.152Z,22.50
2017-12-31T10:10:40.150Z,22.50
2017-12-31T10:11:40.151Z,28.13
2017-12-31T10:12:40.146Z,33.75
2017-12-31T10:13:40.147Z,28.13
2017-12-31T10:14:40.147Z,28.13
2017-12-31T10:15:40.142Z,28.13
2017-12-31T10:16:40.140Z,39.38
2017-12-31T10:17:40.139Z,39.38
2017-12-31T10:18:40.140Z,39.38
2017-12-31T10:19:40.136Z,33.75
2017-12-31T10:20:40.135Z,22.50
2017-12-31T10:21:40.132Z,28.13
2017-12-31T10:22:40.132Z,28.13
2017-12-31T10:23:40.129Z,33.75
2017-12-31T10:24:40.127Z,33.75
2017-12-31T10:25:40.133Z,28.13
2017-12-31T10:26:40.125Z,28.13
2017-12-31T10:27:40.123Z,33.75
2017-12-31T10:28:40.121Z,33.75
2017-12-31T10:29:40.123Z,33.75
2017-12-31T10:30:40.118Z,33.75
2017-12-31T10:31:40.117Z,39.38
2017-12-31T10:32:40.119Z,33.75
2017-12-31T10:33:40.114Z,45.00
2017-12-31T10:34:40.112Z,56.25
2017-12-31T10:35:40.111Z,78.75
2017-12-31T10:36:40.108Z,73.13
2017-12-31T10:37:40.107Z,73.13
2017-12-31T10:38:40.107Z,90.00
2017-12-31T10:39:40.106Z,151.88
2017-12-31T10:40:40.103Z,286.88
2017-12-31T10:41:40.102Z,258.75
2017-12-31T10:42:40.101Z,146.25
2017-12-31T10:43:40.100Z,146.25
2017-12-31T10:44:40.098Z,241.88
2017-12-31T10:45:40.097Z,247.50
2017-12-31T10:46:40.096Z,320.63
2017-12-31T10:47:40.095Z,258.75
2017-12-31T10:48:40.094Z,151.88
2017-12-31T10:49:40.092Z,123.75
2017-12-31T10:50:40.092Z,118.13
2017-12-31T10:51:40.092Z,84.38
2017-12-31T10:52:40.088Z,90.00
2017-12-31T10:53:40.089Z,90.00
2017-12-31T10:54:40.088Z,95.63
2017-12-31T10:55:40.087Z,146.25
2017-12-31T10:56:40.085Z,140.63
2017-12-31T10:57:40.085Z,151.88
2017-12-31T10:58:40.084Z,185.63
2017-12-31T10:59:40.085Z,157.50
2017-12-31T11:00:40.082Z,157.50
2017-12-31T11:01:40.081Z,196.88
2017-12-31T11:02:40.082Z,185.63
2017-12-31T11:03:40.080Z,219.38
2017-12-31T11:04:40.085Z,196.88
2017-12-31T11:05:40.079Z,168.75
2017-12-31T11:06:40.078Z,123.75
2017-12-31T11:07:40.077Z,106.88
2017-12-31T11:08:40.078Z,106.88
2017-12-31T11:09:40.075Z,135.00
2017-12-31T11:10:40.075Z,118.13
2017-12-31T11:11:40.075Z,118.13
2017-12-31T11:12:40.074Z,140.63
2017-12-31T11:13:40.075Z,180.00
2017-12-31T11:14:40.075Z,146.25
2017-12-31T11:15:40.073Z,118.13
2017-12-31T11:16:40.071Z,84.38
2017-12-31T11:17:40.071Z,112.50
2017-12-31T11:18:40.070Z,174.38
2017-12-31T11:19:40.071Z,202.50
2017-12-31T11:20:40.070Z,208.13
2017-12-31T11:21:40.069Z,140.63
2017-12-31T11:22:40.073Z,118.13
2017-12-31T11:23:40.069Z,123.75
2017-12-31T11:24:40.067Z,112.50
2017-12-31T11:25:40.068Z,123.75
2017-12-31T11:26:40.068Z,168.75
2017-12-31T11:27:40.066Z,174.38
2017-12-31T11:28:40.115Z,225.00
2017-12-31T11:29:40.065Z,247.50
2017-12-31T11:30:40.065Z,247.50
2017-12-31T11:31:40.064Z,331.88
2017-12-31T11:32:40.064Z,208.13
2017-12-31T11:33:40.065Z,208.13
2017-12-31T11:34:40.064Z,185.63
2017-12-31T11:35:40.115Z,174.38
2017-12-31T11:36:40.063Z,129.38
2017-12-31T11:37:40.064Z,129.38
2017-12-31T11:38:40.064Z,140.63
2017-12-31T11:39:40.066Z,174.38
2017-12-31T11:40:40.064Z,219.38
2017-12-31T11:41:40.064Z,241.88
2017-12-31T11:42:40.063Z,247.50
2017-12-31T11:43:40.065Z,208.13
2017-12-31T11:44:40.064Z,225.00
2017-12-31T11:45:40.064Z,270.00
2017-12-31T11:46:40.065Z,219.38
2017-12-31T11:47:40.064Z,191.25
2017-12-31T11:48:40.065Z,185.63
2017-12-31T11:49:40.065Z,191.25
2017-12-31T11:50:40.065Z,253.13
2017-12-31T11:51:40.065Z,236.25
2017-12-31T11:52:40.066Z,241.88
2017-12-31T11:53:40.066Z,168.75
2017-12-31T11:54:40.065Z,241.88
2017-12-31T11:55:40.066Z,191.25
2017-12-31T11:56:40.065Z,168.75
2017-12-31T11:57:40.067Z,168.75
2017-12-31T11:58:40.067Z,163.13
2017-12-31T11:59:40.067Z,163.13
2017-12-31T12:00:40.070Z,151.88
2017-12-31T12:01:40.067Z,146.25
2017-12-31T12:02:40.069Z,157.50
2017-12-31T12:03:40.068Z,135.00
2017-12-31T12:04:40.068Z,146.25
2017-12-31T12:05:40.070Z,146.25
2017-12-31T12:06:40.069Z,135.00
2017-12-31T12:07:40.071Z,135.00
2017-12-31T12:08:40.069Z,129.38
2017-12-31T12:09:40.072Z,112.50
2017-12-31T12:10:40.071Z,112.50
2017-12-31T12:11:40.076Z,95.63
2017-12-31T12:12:40.071Z,73.13
2017-12-31T12:13:40.070Z,61.88
2017-12-31T12:14:40.071Z,78.75
2017-12-31T12:15:40.071Z,84.38
2017-12-31T12:16:40.070Z,90.00
2017-12-31T12:17:40.071Z,135.00
2017-12-31T12:18:40.071Z,135.00
2017-12-31T12:19:40.071Z,112.50
2017-12-31T12:20:40.072Z,123.75
2017-12-31T12:21:40.070Z,146.25
2017-12-31T12:22:40.072Z,123.75
2017-12-31T12:23:40.072Z,135.00
2017-12-31T12:24:40.072Z,140.63
2017-12-31T12:25:40.072Z,118.13
2017-12-31T12:26:40.071Z,118.13
2017-12-31T12:27:40.073Z,90.00
2017-12-31T12:28:40.070Z,112.50
2017-12-31T12:29:40.071Z,95.63
2017-12-31T12:30:40.072Z,106.88
2017-12-31T12:31:40.071Z,112.50
2017-12-31T12:32:40.072Z,73.13
2017-12-31T12:33:40.072Z,73.13
2017-12-31T12:34:40.072Z,73.13
2017-12-31T12:35:40.072Z,73.13
2017-12-31T12:36:40.072Z,73.13
2017-12-31T12:37:40.071Z,84.38
2017-12-31T12:38:40.072Z,78.75
2017-12-31T12:39:40.072Z,106.88
2017-12-31T12:40:40.072Z,112.50
2017-12-31T12:41:40.070Z,135.00
2017-12-31T12:42:40.072Z,129.38
2017-12-31T12:43:40.074Z,129.38
2017-12-31T12:44:40.070Z,129.38
2017-12-31T12:45:40.071Z,123.75
2017-12-31T12:46:40.070Z,140.63
2017-12-31T12:47:40.070Z,151.88
2017-12-31T12:48:40.071Z,163.13
2017-12-31T12:49:40.073Z,151.88
2017-12-31T12:50:40.072Z,146.25
2017-12-31T12:51:40.071Z,146.25
2017-12-31T12:52:40.071Z,129.38
2017-12-31T12:53:40.071Z,95.63
2017-12-31T12:54:40.071Z,118.13
2017-12-31T12:55:40.072Z,123.75
2017-12-31T12:56:40.070Z,112.50
2017-12-31T12:57:40.073Z,84.38
2017-12-31T12:58:40.072Z,61.88
2017-12-31T12:59:40.071Z,45.00
2017-12-31T13:00:40.072Z,39.38
2017-12-31T13:01:40.070Z,39.38
2017-12-31T13:02:40.075Z,39.38
2017-12-31T13:03:40.072Z,33.75
2017-12-31T13:04:40.071Z,33.75
2017-12-31T13:05:40.072Z,39.38